sensor_id;sensor_type;location;lat;lon;timestamp;P1;durP1;ratioP1;P2;durP2;ratioP2
21492;SDS011;10908;50.690;4.400;2023-10-08T15:54:14;12.07;;;4.00;;
21492;SDS011;10908;50.690;4.400;2023-10-08T15:56:45;9.27;;;3.55;;
21492;SDS011;10908;50.690;4.400;2023-10-08T15:59:11;8.63;;;3.92;;
21492;SDS011;10908;50.690;4.400;2023-10-08T16:01:37;7.90;;;4.05;;
21492;SDS011;10908;50.690;4.400;2023-10-08T16:04:02;12.93;;;4.75;;
21492;SDS011;10908;50.690;4.400;2023-10-08T16:06:29;11.57;;;4.75;;
21492;SDS011;10908;50.690;4.400;2023-10-08T16:08:55;8.57;;;3.85;;
21492;SDS011;10908;50.690;4.400;2023-10-08T16:11:21;10.23;;;4.05;;
21492;SDS011;10908;50.690;4.400;2023-10-08T16:13:46;12.48;;;4.13;;
21492;SDS011;10908;50.690;4.400;2023-10-08T16:16:12;9.27;;;3.65;;
21492;SDS011;10908;50.690;4.400;2023-10-08T16:18:39;12.63;;;3.83;;
21492;SDS011;10908;50.690;4.400;2023-10-08T16:21:06;8.60;;;3.60;;
21492;SDS011;10908;50.690;4.400;2023-10-08T16:23:34;9.23;;;4.07;;
21492;SDS011;10908;50.690;4.400;2023-10-08T16:26:01;8.68;;;3.78;;
21492;SDS011;10908;50.690;4.400;2023-10-08T16:28:27;8.48;;;3.30;;
21492;SDS011;10908;50.690;4.400;2023-10-08T16:30:55;10.60;;;3.88;;
21492;SDS011;10908;50.690;4.400;2023-10-08T16:33:23;9.80;;;4.50;;
21492;SDS011;10908;50.690;4.400;2023-10-08T16:35:49;11.23;;;4.63;;
21492;SDS011;10908;50.690;4.400;2023-10-08T16:38:18;12.35;;;5.50;;
21492;SDS011;10908;50.690;4.400;2023-10-08T16:40:44;12.05;;;5.70;;
21492;SDS011;10908;50.690;4.400;2023-10-08T16:43:10;13.35;;;5.38;;
21492;SDS011;10908;50.690;4.400;2023-10-08T16:45:42;11.38;;;4.50;;
21492;SDS011;10908;50.690;4.400;2023-10-08T16:48:08;10.30;;;3.83;;
21492;SDS011;10908;50.690;4.400;2023-10-08T16:50:34;10.93;;;4.00;;
21492;SDS011;10908;50.690;4.400;2023-10-08T16:53:00;10.82;;;4.30;;
21492;SDS011;10908;50.690;4.400;2023-10-08T16:55:25;10.18;;;4.32;;
21492;SDS011;10908;50.690;4.400;2023-10-08T16:57:52;10.75;;;4.90;;
21492;SDS011;10908;50.690;4.400;2023-10-08T17:00:19;10.13;;;4.57;;
21492;SDS011;10908;50.690;4.400;2023-10-08T17:02:46;17.30;;;6.82;;
21492;SDS011;10908;50.690;4.400;2023-10-08T17:05:12;14.70;;;6.90;;
21492;SDS011;10908;50.690;4.400;2023-10-08T17:07:40;20.60;;;7.25;;
21492;SDS011;10908;50.690;4.400;2023-10-08T17:10:06;16.35;;;6.00;;
21492;SDS011;10908;50.690;4.400;2023-10-08T17:12:32;13.10;;;5.35;;
21492;SDS011;10908;50.690;4.400;2023-10-08T17:14:58;15.20;;;6.07;;
21492;SDS011;10908;50.690;4.400;2023-10-08T17:17:25;11.52;;;5.20;;
21492;SDS011;10908;50.690;4.400;2023-10-08T17:19:51;10.45;;;4.85;;
21492;SDS011;10908;50.690;4.400;2023-10-08T17:22:16;11.63;;;5.07;;
21492;SDS011;10908;50.690;4.400;2023-10-08T17:24:42;12.73;;;4.25;;
21492;SDS011;10908;50.690;4.400;2023-10-08T17:27:09;11.65;;;4.88;;
21492;SDS011;10908;50.690;4.400;2023-10-08T17:29:38;10.02;;;4.50;;
21492;SDS011;10908;50.690;4.400;2023-10-08T17:32:04;11.82;;;4.75;;
21492;SDS011;10908;50.690;4.400;2023-10-08T17:34:31;12.40;;;4.88;;
21492;SDS011;10908;50.690;4.400;2023-10-08T17:36:57;11.77;;;4.55;;
21492;SDS011;10908;50.690;4.400;2023-10-08T17:39:24;14.40;;;4.78;;
21492;SDS011;10908;50.690;4.400;2023-10-08T17:41:50;13.38;;;4.75;;
21492;SDS011;10908;50.690;4.400;2023-10-08T17:44:16;10.70;;;4.55;;
21492;SDS011;10908;50.690;4.400;2023-10-08T17:46:43;11.60;;;5.03;;
21492;SDS011;10908;50.690;4.400;2023-10-08T17:49:09;12.65;;;5.18;;
21492;SDS011;10908;50.690;4.400;2023-10-08T17:51:35;14.80;;;5.40;;
21492;SDS011;10908;50.690;4.400;2023-10-08T17:54:02;15.65;;;5.28;;
21492;SDS011;10908;50.690;4.400;2023-10-08T17:56:29;15.18;;;5.35;;
21492;SDS011;10908;50.690;4.400;2023-10-08T17:58:58;14.13;;;5.38;;
21492;SDS011;10908;50.690;4.400;2023-10-08T18:01:24;12.70;;;5.72;;
21492;SDS011;10908;50.690;4.400;2023-10-08T18:03:50;11.00;;;5.03;;
21492;SDS011;10908;50.690;4.400;2023-10-08T18:06:16;11.50;;;5.53;;
21492;SDS011;10908;50.690;4.400;2023-10-08T18:08:43;13.55;;;5.40;;
21492;SDS011;10908;50.690;4.400;2023-10-08T18:11:12;13.90;;;5.82;;
21492;SDS011;10908;50.690;4.400;2023-10-08T18:13:38;13.15;;;5.45;;
21492;SDS011;10908;50.690;4.400;2023-10-08T18:16:10;14.48;;;6.30;;
21492;SDS011;10908;50.690;4.400;2023-10-08T18:18:38;11.38;;;5.00;;
21492;SDS011;10908;50.690;4.400;2023-10-08T18:21:05;15.32;;;6.43;;
21492;SDS011;10908;50.690;4.400;2023-10-08T18:23:35;13.68;;;5.82;;
21492;SDS011;10908;50.690;4.400;2023-10-08T18:26:01;20.40;;;6.45;;
21492;SDS011;10908;50.690;4.400;2023-10-08T18:28:27;12.77;;;5.20;;
21492;SDS011;10908;50.690;4.400;2023-10-08T18:30:53;11.18;;;5.07;;
21492;SDS011;10908;50.690;4.400;2023-10-08T18:33:19;10.73;;;4.93;;
21492;SDS011;10908;50.690;4.400;2023-10-08T18:35:44;14.68;;;5.30;;
21492;SDS011;10908;50.690;4.400;2023-10-08T18:38:10;12.50;;;5.03;;
21492;SDS011;10908;50.690;4.400;2023-10-08T18:40:36;11.63;;;5.18;;
21492;SDS011;10908;50.690;4.400;2023-10-08T18:43:03;13.98;;;5.13;;
21492;SDS011;10908;50.690;4.400;2023-10-08T18:47:59;11.80;;;5.38;;
21492;SDS011;10908;50.690;4.400;2023-10-08T18:50:25;14.18;;;5.30;;
21492;SDS011;10908;50.690;4.400;2023-10-08T18:52:50;11.48;;;4.85;;
21492;SDS011;10908;50.690;4.400;2023-10-08T18:55:16;12.45;;;5.40;;
21492;SDS011;10908;50.690;4.400;2023-10-08T18:57:45;11.77;;;5.30;;
21492;SDS011;10908;50.690;4.400;2023-10-08T19:00:16;17.05;;;6.03;;
21492;SDS011;10908;50.690;4.400;2023-10-08T19:02:45;13.82;;;6.05;;
21492;SDS011;10908;50.690;4.400;2023-10-08T19:05:11;11.15;;;5.57;;
21492;SDS011;10908;50.690;4.400;2023-10-08T19:07:37;9.95;;;5.40;;
21492;SDS011;10908;50.690;4.400;2023-10-08T19:10:04;12.70;;;5.93;;
21492;SDS011;10908;50.690;4.400;2023-10-08T19:12:31;14.10;;;6.07;;
21492;SDS011;10908;50.690;4.400;2023-10-08T19:14:58;12.45;;;5.60;;
21492;SDS011;10908;50.690;4.400;2023-10-08T19:17:24;13.20;;;5.80;;
21492;SDS011;10908;50.690;4.400;2023-10-08T19:19:50;12.98;;;5.53;;
21492;SDS011;10908;50.690;4.400;2023-10-08T19:22:17;14.25;;;5.80;;
21492;SDS011;10908;50.690;4.400;2023-10-08T19:24:43;11.95;;;5.57;;
21492;SDS011;10908;50.690;4.400;2023-10-08T19:27:08;13.65;;;5.90;;
21492;SDS011;10908;50.690;4.400;2023-10-08T19:29:35;15.35;;;5.88;;
21492;SDS011;10908;50.690;4.400;2023-10-08T19:32:03;13.95;;;5.88;;
21492;SDS011;10908;50.690;4.400;2023-10-08T19:34:30;12.18;;;5.82;;
21492;SDS011;10908;50.690;4.400;2023-10-08T19:36:56;12.80;;;6.07;;
21492;SDS011;10908;50.690;4.400;2023-10-08T19:39:22;11.95;;;5.72;;
21492;SDS011;10908;50.690;4.400;2023-10-08T19:41:48;14.05;;;6.38;;
21492;SDS011;10908;50.690;4.400;2023-10-08T19:44:13;10.77;;;5.93;;
21492;SDS011;10908;50.690;4.400;2023-10-08T19:46:40;12.82;;;5.90;;
21492;SDS011;10908;50.690;4.400;2023-10-08T19:49:06;14.40;;;6.22;;
21492;SDS011;10908;50.690;4.400;2023-10-08T19:51:32;13.02;;;6.00;;
21492;SDS011;10908;50.690;4.400;2023-10-08T19:53:59;12.55;;;5.90;;
21492;SDS011;10908;50.690;4.400;2023-10-08T19:56:25;12.57;;;5.95;;
21492;SDS011;10908;50.690;4.400;2023-10-08T19:58:52;12.00;;;5.97;;
21492;SDS011;10908;50.690;4.400;2023-10-08T20:01:20;14.13;;;5.95;;
21492;SDS011;10908;50.690;4.400;2023-10-08T20:03:45;12.00;;;5.85;;
21492;SDS011;10908;50.690;4.400;2023-10-08T20:06:11;11.13;;;5.85;;
21492;SDS011;10908;50.690;4.400;2023-10-08T20:08:38;11.98;;;6.05;;
21492;SDS011;10908;50.690;4.400;2023-10-08T20:11:03;11.38;;;5.65;;
21492;SDS011;10908;50.690;4.400;2023-10-08T20:13:30;11.95;;;5.85;;
21492;SDS011;10908;50.690;4.400;2023-10-08T20:15:56;13.07;;;5.97;;
21492;SDS011;10908;50.690;4.400;2023-10-08T20:18:21;11.35;;;5.88;;
21492;SDS011;10908;50.690;4.400;2023-10-08T20:20:48;13.95;;;5.95;;
21492;SDS011;10908;50.690;4.400;2023-10-08T20:23:18;12.82;;;5.72;;
21492;SDS011;10908;50.690;4.400;2023-10-08T20:25:44;11.07;;;5.50;;
21492;SDS011;10908;50.690;4.400;2023-10-08T20:28:12;12.50;;;5.85;;
21492;SDS011;10908;50.690;4.400;2023-10-08T20:30:41;12.48;;;5.65;;
21492;SDS011;10908;50.690;4.400;2023-10-08T20:33:09;13.40;;;6.45;;
21492;SDS011;10908;50.690;4.400;2023-10-08T20:35:38;13.93;;;5.28;;
21492;SDS011;10908;50.690;4.400;2023-10-08T20:38:06;15.13;;;5.70;;
21492;SDS011;10908;50.690;4.400;2023-10-08T20:40:35;10.63;;;5.53;;
21492;SDS011;10908;50.690;4.400;2023-10-08T20:43:05;11.02;;;5.03;;
21492;SDS011;10908;50.690;4.400;2023-10-08T20:45:31;9.88;;;5.10;;
21492;SDS011;10908;50.690;4.400;2023-10-08T20:47:58;14.32;;;5.55;;
21492;SDS011;10908;50.690;4.400;2023-10-08T20:50:26;10.57;;;5.38;;
21492;SDS011;10908;50.690;4.400;2023-10-08T20:52:53;14.00;;;5.50;;
21492;SDS011;10908;50.690;4.400;2023-10-08T20:55:20;12.27;;;5.68;;
21492;SDS011;10908;50.690;4.400;2023-10-08T20:57:49;11.23;;;5.18;;
21492;SDS011;10908;50.690;4.400;2023-10-08T21:00:19;11.63;;;5.38;;
21492;SDS011;10908;50.690;4.400;2023-10-08T21:02:50;10.77;;;5.70;;
21492;SDS011;10908;50.690;4.400;2023-10-08T21:05:16;12.13;;;5.07;;
21492;SDS011;10908;50.690;4.400;2023-10-08T21:07:44;12.07;;;5.72;;
21492;SDS011;10908;50.690;4.400;2023-10-08T21:10:12;11.45;;;6.07;;
21492;SDS011;10908;50.690;4.400;2023-10-08T21:12:39;12.40;;;5.75;;
21492;SDS011;10908;50.690;4.400;2023-10-08T21:15:07;14.20;;;6.00;;
21492;SDS011;10908;50.690;4.400;2023-10-08T21:17:39;12.25;;;6.07;;
21492;SDS011;10908;50.690;4.400;2023-10-08T21:20:06;11.10;;;5.85;;
21492;SDS011;10908;50.690;4.400;2023-10-08T21:22:44;9.98;;;5.60;;
21492;SDS011;10908;50.690;4.400;2023-10-08T21:25:11;12.88;;;5.55;;
21492;SDS011;10908;50.690;4.400;2023-10-08T21:27:39;13.57;;;5.82;;
21492;SDS011;10908;50.690;4.400;2023-10-08T21:30:08;12.77;;;5.90;;
21492;SDS011;10908;50.690;4.400;2023-10-08T21:32:37;14.77;;;6.05;;
21492;SDS011;10908;50.690;4.400;2023-10-08T21:35:10;11.82;;;6.25;;
21492;SDS011;10908;50.690;4.400;2023-10-08T21:37:39;9.80;;;5.13;;
21492;SDS011;10908;50.690;4.400;2023-10-08T21:40:06;13.32;;;6.45;;
21492;SDS011;10908;50.690;4.400;2023-10-08T21:42:36;16.08;;;6.45;;
21492;SDS011;10908;50.690;4.400;2023-10-08T21:45:02;12.68;;;5.68;;
21492;SDS011;10908;50.690;4.400;2023-10-08T21:47:35;11.88;;;5.68;;
21492;SDS011;10908;50.690;4.400;2023-10-08T21:50:01;10.10;;;5.30;;
21492;SDS011;10908;50.690;4.400;2023-10-08T21:52:28;11.82;;;5.57;;
21492;SDS011;10908;50.690;4.400;2023-10-08T21:54:54;12.38;;;5.45;;
21492;SDS011;10908;50.690;4.400;2023-10-08T21:57:20;10.30;;;5.28;;
21492;SDS011;10908;50.690;4.400;2023-10-08T21:59:47;15.20;;;5.40;;
21492;SDS011;10908;50.690;4.400;2023-10-08T22:02:13;11.40;;;5.28;;
21492;SDS011;10908;50.690;4.400;2023-10-08T22:04:41;10.93;;;5.20;;
21492;SDS011;10908;50.690;4.400;2023-10-08T22:07:07;11.60;;;5.00;;
21492;SDS011;10908;50.690;4.400;2023-10-08T22:09:33;8.85;;;4.90;;
21492;SDS011;10908;50.690;4.400;2023-10-08T22:12:00;9.57;;;5.07;;
21492;SDS011;10908;50.690;4.400;2023-10-08T22:14:28;10.73;;;4.95;;
21492;SDS011;10908;50.690;4.400;2023-10-08T22:16:59;10.68;;;5.38;;
21492;SDS011;10908;50.690;4.400;2023-10-08T22:19:37;9.32;;;4.70;;
21492;SDS011;10908;50.690;4.400;2023-10-08T22:22:12;10.95;;;5.07;;
21492;SDS011;10908;50.690;4.400;2023-10-08T22:24:41;10.38;;;5.40;;
21492;SDS011;10908;50.690;4.400;2023-10-08T22:27:09;11.13;;;5.40;;
21492;SDS011;10908;50.690;4.400;2023-10-08T22:29:50;11.05;;;5.22;;
21492;SDS011;10908;50.690;4.400;2023-10-08T22:32:16;10.63;;;5.30;;
21492;SDS011;10908;50.690;4.400;2023-10-08T22:34:44;10.27;;;5.00;;
21492;SDS011;10908;50.690;4.400;2023-10-08T22:37:20;10.57;;;5.50;;
21492;SDS011;10908;50.690;4.400;2023-10-08T22:40:00;11.90;;;5.72;;
21492;SDS011;10908;50.690;4.400;2023-10-08T22:42:26;11.68;;;5.78;;
21492;SDS011;10908;50.690;4.400;2023-10-08T22:44:51;10.45;;;5.53;;
21492;SDS011;10908;50.690;4.400;2023-10-08T22:47:23;12.63;;;5.72;;
21492;SDS011;10908;50.690;4.400;2023-10-08T22:49:53;12.85;;;5.50;;
21492;SDS011;10908;50.690;4.400;2023-10-08T22:52:20;10.65;;;5.40;;
21492;SDS011;10908;50.690;4.400;2023-10-08T22:54:52;10.55;;;5.00;;
21492;SDS011;10908;50.690;4.400;2023-10-08T22:57:18;11.27;;;5.05;;
21492;SDS011;10908;50.690;4.400;2023-10-08T22:59:48;12.27;;;5.05;;
21492;SDS011;10908;50.690;4.400;2023-10-08T23:02:14;11.45;;;5.13;;
21492;SDS011;10908;50.690;4.400;2023-10-08T23:04:40;12.82;;;5.78;;
21492;SDS011;10908;50.690;4.400;2023-10-08T23:07:09;9.77;;;5.15;;
21492;SDS011;10908;50.690;4.400;2023-10-08T23:09:35;11.90;;;5.13;;
21492;SDS011;10908;50.690;4.400;2023-10-08T23:12:02;13.48;;;5.13;;
21492;SDS011;10908;50.690;4.400;2023-10-08T23:14:28;10.50;;;5.25;;
21492;SDS011;10908;50.690;4.400;2023-10-08T23:16:54;11.15;;;5.20;;
21492;SDS011;10908;50.690;4.400;2023-10-08T23:19:23;9.35;;;4.95;;
21492;SDS011;10908;50.690;4.400;2023-10-08T23:21:51;10.95;;;5.10;;
21492;SDS011;10908;50.690;4.400;2023-10-08T23:24:17;11.27;;;5.13;;
21492;SDS011;10908;50.690;4.400;2023-10-08T23:26:46;14.07;;;5.18;;
21492;SDS011;10908;50.690;4.400;2023-10-08T23:29:12;11.73;;;5.60;;
21492;SDS011;10908;50.690;4.400;2023-10-08T23:31:38;11.57;;;5.45;;
21492;SDS011;10908;50.690;4.400;2023-10-08T23:34:06;12.85;;;5.22;;
21492;SDS011;10908;50.690;4.400;2023-10-08T23:36:35;10.20;;;5.03;;
21492;SDS011;10908;50.690;4.400;2023-10-08T23:39:05;12.75;;;4.70;;
21492;SDS011;10908;50.690;4.400;2023-10-08T23:41:45;10.32;;;5.10;;
21492;SDS011;10908;50.690;4.400;2023-10-08T23:44:26;10.13;;;5.10;;
21492;SDS011;10908;50.690;4.400;2023-10-08T23:46:52;12.13;;;4.95;;
21492;SDS011;10908;50.690;4.400;2023-10-08T23:49:28;10.13;;;4.95;;
21492;SDS011;10908;50.690;4.400;2023-10-08T23:51:56;10.27;;;5.30;;
21492;SDS011;10908;50.690;4.400;2023-10-08T23:54:25;10.10;;;5.00;;
21492;SDS011;10908;50.690;4.400;2023-10-08T23:56:58;12.05;;;5.38;;
21492;SDS011;10908;50.690;4.400;2023-10-08T23:59:25;13.48;;;5.03;;
